sensor_id;sensor_type;location;lat;lon;timestamp;temperature;humidity
65460;DHT22;52058;49.822;6.754;2023-10-19T00:01:55;12.11;98.83
65460;DHT22;52058;49.822;6.754;2023-10-19T00:04:22;12.10;98.99
65460;DHT22;52058;49.822;6.754;2023-10-19T00:06:48;12.08;98.88
65460;DHT22;52058;49.822;6.754;2023-10-19T00:09:14;12.11;98.71
65460;DHT22;52058;49.822;6.754;2023-10-19T00:11:41;12.13;98.71
65460;DHT22;52058;49.822;6.754;2023-10-19T00:14:07;12.15;98.78
65460;DHT22;52058;49.822;6.754;2023-10-19T00:16:42;12.13;99.00
65460;DHT22;52058;49.822;6.754;2023-10-19T00:19:10;12.10;99.09
65460;DHT22;52058;49.822;6.754;2023-10-19T00:21:38;12.14;99.02
65460;DHT22;52058;49.822;6.754;2023-10-19T00:24:16;12.08;99.05
65460;DHT22;52058;49.822;6.754;2023-10-19T00:26:44;12.10;99.20
65460;DHT22;52058;49.822;6.754;2023-10-19T00:29:10;12.15;99.09
65460;DHT22;52058;49.822;6.754;2023-10-19T00:31:55;12.13;99.20
65460;DHT22;52058;49.822;6.754;2023-10-19T00:34:22;12.14;99.19
65460;DHT22;52058;49.822;6.754;2023-10-19T00:36:51;12.18;99.13
65460;DHT22;52058;49.822;6.754;2023-10-19T00:39:20;12.18;99.14
65460;DHT22;52058;49.822;6.754;2023-10-19T00:41:47;12.20;99.18
65460;DHT22;52058;49.822;6.754;2023-10-19T00:44:15;12.20;99.22
65460;DHT22;52058;49.822;6.754;2023-10-19T00:46:47;12.21;99.17
65460;DHT22;52058;49.822;6.754;2023-10-19T00:49:18;12.21;99.17
65460;DHT22;52058;49.822;6.754;2023-10-19T00:51:52;12.22;99.29
65460;DHT22;52058;49.822;6.754;2023-10-19T00:54:30;12.21;99.41
65460;DHT22;52058;49.822;6.754;2023-10-19T00:56:59;12.24;99.48
65460;DHT22;52058;49.822;6.754;2023-10-19T00:59:30;12.26;99.55
65460;DHT22;52058;49.822;6.754;2023-10-19T01:02:00;12.29;99.58
65460;DHT22;52058;49.822;6.754;2023-10-19T01:04:42;12.32;99.68
65460;DHT22;52058;49.822;6.754;2023-10-19T01:07:11;12.36;99.47
65460;DHT22;52058;49.822;6.754;2023-10-19T01:09:41;12.39;99.35
65460;DHT22;52058;49.822;6.754;2023-10-19T01:12:10;12.38;99.25
65460;DHT22;52058;49.822;6.754;2023-10-19T01:15:07;12.35;99.54
65460;DHT22;52058;49.822;6.754;2023-10-19T01:17:35;12.28;99.83
65460;DHT22;52058;49.822;6.754;2023-10-19T01:20:08;12.29;99.82
65460;DHT22;52058;49.822;6.754;2023-10-19T01:22:53;12.32;99.84
65460;DHT22;52058;49.822;6.754;2023-10-19T01:25:32;12.34;99.81
65460;DHT22;52058;49.822;6.754;2023-10-19T01:28:06;12.32;99.87
65460;DHT22;52058;49.822;6.754;2023-10-19T01:30:34;12.31;99.95
65460;DHT22;52058;49.822;6.754;2023-10-19T01:33:01;12.32;99.99
65460;DHT22;52058;49.822;6.754;2023-10-19T01:35:29;12.31;99.99
65460;DHT22;52058;49.822;6.754;2023-10-19T01:38:18;12.35;99.99
65460;DHT22;52058;49.822;6.754;2023-10-19T01:40:43;12.35;99.99
65460;DHT22;52058;49.822;6.754;2023-10-19T01:43:14;12.35;99.99
65460;DHT22;52058;49.822;6.754;2023-10-19T01:45:46;12.32;99.99
65460;DHT22;52058;49.822;6.754;2023-10-19T01:48:13;12.28;99.99
65460;DHT22;52058;49.822;6.754;2023-10-19T01:50:40;12.24;99.99
65460;DHT22;52058;49.822;6.754;2023-10-19T01:53:07;12.20;99.99
65460;DHT22;52058;49.822;6.754;2023-10-19T01:55:42;12.15;99.99
65460;DHT22;52058;49.822;6.754;2023-10-19T01:58:07;12.13;99.99
65460;DHT22;52058;49.822;6.754;2023-10-19T02:00:34;12.13;99.99
65460;DHT22;52058;49.822;6.754;2023-10-19T02:03:06;12.15;99.99
65460;DHT22;52058;49.822;6.754;2023-10-19T02:05:33;12.15;99.99
65460;DHT22;52058;49.822;6.754;2023-10-19T02:08:05;12.29;99.99
65460;DHT22;52058;49.822;6.754;2023-10-19T02:10:33;12.32;99.99
65460;DHT22;52058;49.822;6.754;2023-10-19T02:13:01;12.35;99.99
65460;DHT22;52058;49.822;6.754;2023-10-19T02:15:32;12.29;99.99
65460;DHT22;52058;49.822;6.754;2023-10-19T02:17:59;12.29;99.99
65460;DHT22;52058;49.822;6.754;2023-10-19T02:20:27;12.22;99.99
65460;DHT22;52058;49.822;6.754;2023-10-19T02:22:54;12.21;99.99
65460;DHT22;52058;49.822;6.754;2023-10-19T02:25:20;12.17;99.99
65460;DHT22;52058;49.822;6.754;2023-10-19T02:27:46;12.20;99.99
65460;DHT22;52058;49.822;6.754;2023-10-19T02:30:14;12.15;99.99
65460;DHT22;52058;49.822;6.754;2023-10-19T02:32:43;12.20;99.99
65460;DHT22;52058;49.822;6.754;2023-10-19T02:35:09;12.24;99.99
65460;DHT22;52058;49.822;6.754;2023-10-19T02:37:35;12.26;99.99
65460;DHT22;52058;49.822;6.754;2023-10-19T02:40:04;12.29;99.99
65460;DHT22;52058;49.822;6.754;2023-10-19T02:42:38;12.35;99.99
65460;DHT22;52058;49.822;6.754;2023-10-19T02:45:04;12.39;99.99
65460;DHT22;52058;49.822;6.754;2023-10-19T02:47:32;12.41;99.99
65460;DHT22;52058;49.822;6.754;2023-10-19T02:49:58;12.44;99.99
65460;DHT22;52058;49.822;6.754;2023-10-19T02:52:25;12.50;99.99
65460;DHT22;52058;49.822;6.754;2023-10-19T02:54:52;12.52;99.99
65460;DHT22;52058;49.822;6.754;2023-10-19T02:57:22;12.56;99.99
65460;DHT22;52058;49.822;6.754;2023-10-19T02:59:49;12.56;99.99
65460;DHT22;52058;49.822;6.754;2023-10-19T03:02:15;12.59;99.99
65460;DHT22;52058;49.822;6.754;2023-10-19T03:04:44;12.59;99.99
65460;DHT22;52058;49.822;6.754;2023-10-19T03:07:11;12.62;99.99
65460;DHT22;52058;49.822;6.754;2023-10-19T03:09:37;12.63;99.99
65460;DHT22;52058;49.822;6.754;2023-10-19T03:12:05;12.57;99.99
65460;DHT22;52058;49.822;6.754;2023-10-19T03:14:35;12.60;99.99
65460;DHT22;52058;49.822;6.754;2023-10-19T03:17:02;12.59;99.99
65460;DHT22;52058;49.822;6.754;2023-10-19T03:19:29;12.60;99.99
65460;DHT22;52058;49.822;6.754;2023-10-19T03:21:57;12.59;99.99
65460;DHT22;52058;49.822;6.754;2023-10-19T03:24:25;12.59;99.99
65460;DHT22;52058;49.822;6.754;2023-10-19T03:27:01;12.62;99.99
65460;DHT22;52058;49.822;6.754;2023-10-19T03:29:33;12.63;99.99
65460;DHT22;52058;49.822;6.754;2023-10-19T03:32:04;12.66;99.99
65460;DHT22;52058;49.822;6.754;2023-10-19T03:34:31;12.69;99.99
65460;DHT22;52058;49.822;6.754;2023-10-19T03:36:59;12.72;99.99
65460;DHT22;52058;49.822;6.754;2023-10-19T03:39:30;12.73;99.99
65460;DHT22;52058;49.822;6.754;2023-10-19T03:41:59;12.72;99.99
65460;DHT22;52058;49.822;6.754;2023-10-19T03:44:26;12.73;99.99
65460;DHT22;52058;49.822;6.754;2023-10-19T03:46:57;12.77;99.99
65460;DHT22;52058;49.822;6.754;2023-10-19T03:49:26;12.76;99.99
65460;DHT22;52058;49.822;6.754;2023-10-19T03:52:00;12.77;99.99
65460;DHT22;52058;49.822;6.754;2023-10-19T03:54:29;12.77;99.99
65460;DHT22;52058;49.822;6.754;2023-10-19T03:56:58;12.83;99.99
65460;DHT22;52058;49.822;6.754;2023-10-19T03:59:29;12.82;99.99
65460;DHT22;52058;49.822;6.754;2023-10-19T04:01:59;12.92;99.99
65460;DHT22;52058;49.822;6.754;2023-10-19T04:04:26;13.02;99.99
65460;DHT22;52058;49.822;6.754;2023-10-19T04:06:54;13.04;99.99
65460;DHT22;52058;49.822;6.754;2023-10-19T04:09:25;13.07;99.99
65460;DHT22;52058;49.822;6.754;2023-10-19T04:11:55;13.02;99.99
65460;DHT22;52058;49.822;6.754;2023-10-19T04:14:21;13.02;99.99
65460;DHT22;52058;49.822;6.754;2023-10-19T04:16:49;13.13;99.99
65460;DHT22;52058;49.822;6.754;2023-10-19T04:19:15;13.15;99.99
65460;DHT22;52058;49.822;6.754;2023-10-19T04:21:42;13.17;99.99
65460;DHT22;52058;49.822;6.754;2023-10-19T04:24:12;13.17;99.99
65460;DHT22;52058;49.822;6.754;2023-10-19T04:26:41;13.24;99.99
65460;DHT22;52058;49.822;6.754;2023-10-19T04:29:07;13.25;99.99
65460;DHT22;52058;49.822;6.754;2023-10-19T04:31:37;13.31;99.99
65460;DHT22;52058;49.822;6.754;2023-10-19T04:34:06;13.38;99.99
65460;DHT22;52058;49.822;6.754;2023-10-19T04:36:34;13.41;99.99
65460;DHT22;52058;49.822;6.754;2023-10-19T04:39:01;13.41;99.99
65460;DHT22;52058;49.822;6.754;2023-10-19T04:41:27;13.40;99.99
65460;DHT22;52058;49.822;6.754;2023-10-19T04:43:55;13.40;99.99
65460;DHT22;52058;49.822;6.754;2023-10-19T04:46:24;13.38;99.99
65460;DHT22;52058;49.822;6.754;2023-10-19T04:48:54;13.34;99.99
65460;DHT22;52058;49.822;6.754;2023-10-19T04:51:21;13.28;99.99
65460;DHT22;52058;49.822;6.754;2023-10-19T04:53:47;13.21;99.99
65460;DHT22;52058;49.822;6.754;2023-10-19T04:56:14;13.24;99.99
65460;DHT22;52058;49.822;6.754;2023-10-19T04:58:40;13.20;99.99
65460;DHT22;52058;49.822;6.754;2023-10-19T05:01:08;13.21;99.99
65460;DHT22;52058;49.822;6.754;2023-10-19T05:03:37;13.24;99.99
65460;DHT22;52058;49.822;6.754;2023-10-19T05:06:04;13.31;99.99
65460;DHT22;52058;49.822;6.754;2023-10-19T05:08:30;13.34;99.99
65460;DHT22;52058;49.822;6.754;2023-10-19T05:10:58;13.31;99.99
65460;DHT22;52058;49.822;6.754;2023-10-19T05:13:26;13.35;99.99
65460;DHT22;52058;49.822;6.754;2023-10-19T05:15:53;13.40;99.99
65460;DHT22;52058;49.822;6.754;2023-10-19T05:18:22;13.38;99.99
65460;DHT22;52058;49.822;6.754;2023-10-19T05:20:48;13.34;99.99
65460;DHT22;52058;49.822;6.754;2023-10-19T05:23:20;13.32;99.99
65460;DHT22;52058;49.822;6.754;2023-10-19T05:25:47;13.34;99.99
65460;DHT22;52058;49.822;6.754;2023-10-19T05:28:14;13.40;99.99
65460;DHT22;52058;49.822;6.754;2023-10-19T05:30:40;13.38;99.99
65460;DHT22;52058;49.822;6.754;2023-10-19T05:33:07;13.40;99.99
65460;DHT22;52058;49.822;6.754;2023-10-19T05:35:35;13.40;99.99
65460;DHT22;52058;49.822;6.754;2023-10-19T05:38:06;13.35;99.99
65460;DHT22;52058;49.822;6.754;2023-10-19T05:40:32;13.28;99.99
65460;DHT22;52058;49.822;6.754;2023-10-19T05:43:01;13.21;99.99
65460;DHT22;52058;49.822;6.754;2023-10-19T05:45:28;13.13;99.99
65460;DHT22;52058;49.822;6.754;2023-10-19T05:47:55;13.04;99.99
65460;DHT22;52058;49.822;6.754;2023-10-19T05:50:22;12.99;99.99
65460;DHT22;52058;49.822;6.754;2023-10-19T05:52:50;12.90;99.99
65460;DHT22;52058;49.822;6.754;2023-10-19T05:55:18;12.84;99.99
65460;DHT22;52058;49.822;6.754;2023-10-19T05:57:46;12.86;99.99
65460;DHT22;52058;49.822;6.754;2023-10-19T06:00:13;12.89;99.99
65460;DHT22;52058;49.822;6.754;2023-10-19T06:02:42;12.93;99.99
65460;DHT22;52058;49.822;6.754;2023-10-19T06:05:10;13.02;99.99
65460;DHT22;52058;49.822;6.754;2023-10-19T06:07:36;13.13;99.99
65460;DHT22;52058;49.822;6.754;2023-10-19T06:10:06;13.18;99.99
65460;DHT22;52058;49.822;6.754;2023-10-19T06:12:33;13.21;99.99
65460;DHT22;52058;49.822;6.754;2023-10-19T06:15:00;13.21;99.99
65460;DHT22;52058;49.822;6.754;2023-10-19T06:17:26;13.24;99.99
65460;DHT22;52058;49.822;6.754;2023-10-19T06:19:54;13.24;99.99
65460;DHT22;52058;49.822;6.754;2023-10-19T06:22:21;13.21;99.99
65460;DHT22;52058;49.822;6.754;2023-10-19T06:24:47;13.20;99.99
65460;DHT22;52058;49.822;6.754;2023-10-19T06:27:15;13.14;99.99
65460;DHT22;52058;49.822;6.754;2023-10-19T06:29:42;13.08;99.99
65460;DHT22;52058;49.822;6.754;2023-10-19T06:32:09;13.04;99.99
65460;DHT22;52058;49.822;6.754;2023-10-19T06:34:38;13.06;99.99
65460;DHT22;52058;49.822;6.754;2023-10-19T06:37:05;13.00;99.99
65460;DHT22;52058;49.822;6.754;2023-10-19T06:39:34;13.02;99.99
65460;DHT22;52058;49.822;6.754;2023-10-19T06:42:03;13.07;99.99
65460;DHT22;52058;49.822;6.754;2023-10-19T06:44:31;13.13;99.99
65460;DHT22;52058;49.822;6.754;2023-10-19T06:46:58;13.18;99.99
65460;DHT22;52058;49.822;6.754;2023-10-19T06:49:24;13.25;99.99
65460;DHT22;52058;49.822;6.754;2023-10-19T06:51:51;13.28;99.99
65460;DHT22;52058;49.822;6.754;2023-10-19T06:54:18;13.30;99.99
65460;DHT22;52058;49.822;6.754;2023-10-19T06:56:45;13.45;99.99
65460;DHT22;52058;49.822;6.754;2023-10-19T06:59:11;13.52;99.99
65460;DHT22;52058;49.822;6.754;2023-10-19T07:01:39;13.62;99.99
65460;DHT22;52058;49.822;6.754;2023-10-19T07:04:06;13.71;99.99
65460;DHT22;52058;49.822;6.754;2023-10-19T07:06:32;13.82;99.99
65460;DHT22;52058;49.822;6.754;2023-10-19T07:08:59;13.87;99.99
65460;DHT22;52058;49.822;6.754;2023-10-19T07:11:28;13.86;99.99
65460;DHT22;52058;49.822;6.754;2023-10-19T07:13:54;13.82;99.99
65460;DHT22;52058;49.822;6.754;2023-10-19T07:16:21;13.81;99.99
65460;DHT22;52058;49.822;6.754;2023-10-19T07:18:49;13.78;99.99
65460;DHT22;52058;49.822;6.754;2023-10-19T07:21:16;13.75;99.99
65460;DHT22;52058;49.822;6.754;2023-10-19T07:23:42;13.76;99.99
65460;DHT22;52058;49.822;6.754;2023-10-19T07:26:11;13.72;99.99
65460;DHT22;52058;49.822;6.754;2023-10-19T07:28:39;13.68;99.99
65460;DHT22;52058;49.822;6.754;2023-10-19T07:31:07;13.68;99.99
65460;DHT22;52058;49.822;6.754;2023-10-19T07:33:38;13.71;99.99
65460;DHT22;52058;49.822;6.754;2023-10-19T07:36:13;13.81;99.99
65460;DHT22;52058;49.822;6.754;2023-10-19T07:38:40;13.90;99.99
65460;DHT22;52058;49.822;6.754;2023-10-19T07:41:07;13.96;99.99
65460;DHT22;52058;49.822;6.754;2023-10-19T07:43:35;14.02;99.99
65460;DHT22;52058;49.822;6.754;2023-10-19T07:46:01;14.06;99.99
65460;DHT22;52058;49.822;6.754;2023-10-19T07:48:28;14.08;99.99
65460;DHT22;52058;49.822;6.754;2023-10-19T07:50:54;14.03;99.99
65460;DHT22;52058;49.822;6.754;2023-10-19T07:53:22;14.06;99.99
65460;DHT22;52058;49.822;6.754;2023-10-19T07:55:50;14.09;99.99
65460;DHT22;52058;49.822;6.754;2023-10-19T07:58:17;14.14;99.99
65460;DHT22;52058;49.822;6.754;2023-10-19T08:00:44;14.21;99.99
65460;DHT22;52058;49.822;6.754;2023-10-19T08:03:12;14.33;99.99
65460;DHT22;52058;49.822;6.754;2023-10-19T08:05:41;14.45;99.99
65460;DHT22;52058;49.822;6.754;2023-10-19T08:08:07;14.60;99.99
65460;DHT22;52058;49.822;6.754;2023-10-19T08:10:35;14.74;99.99
65460;DHT22;52058;49.822;6.754;2023-10-19T08:13:02;14.85;99.99
65460;DHT22;52058;49.822;6.754;2023-10-19T08:15:29;14.81;99.99
65460;DHT22;52058;49.822;6.754;2023-10-19T08:17:56;14.77;99.99
65460;DHT22;52058;49.822;6.754;2023-10-19T08:20:22;14.74;99.99
65460;DHT22;52058;49.822;6.754;2023-10-19T08:22:49;14.75;99.99
65460;DHT22;52058;49.822;6.754;2023-10-19T08:25:16;14.71;99.99
65460;DHT22;52058;49.822;6.754;2023-10-19T08:27:44;14.75;99.99
65460;DHT22;52058;49.822;6.754;2023-10-19T08:30:14;14.81;99.99
65460;DHT22;52058;49.822;6.754;2023-10-19T08:32:43;14.88;99.99
65460;DHT22;52058;49.822;6.754;2023-10-19T08:35:13;14.99;99.99
65460;DHT22;52058;49.822;6.754;2023-10-19T08:37:40;15.10;99.99
65460;DHT22;52058;49.822;6.754;2023-10-19T08:40:10;15.19;99.99
65460;DHT22;52058;49.822;6.754;2023-10-19T08:42:39;15.35;99.99
65460;DHT22;52058;49.822;6.754;2023-10-19T08:45:08;15.47;99.99
65460;DHT22;52058;49.822;6.754;2023-10-19T08:47:40;15.60;99.99
65460;DHT22;52058;49.822;6.754;2023-10-19T08:50:08;15.73;99.99
65460;DHT22;52058;49.822;6.754;2023-10-19T08:52:36;15.84;99.99
65460;DHT22;52058;49.822;6.754;2023-10-19T08:55:03;15.98;99.99
65460;DHT22;52058;49.822;6.754;2023-10-19T08:57:30;16.04;99.99
65460;DHT22;52058;49.822;6.754;2023-10-19T08:59:57;16.14;99.99
65460;DHT22;52058;49.822;6.754;2023-10-19T09:02:25;16.24;99.99
65460;DHT22;52058;49.822;6.754;2023-10-19T09:04:52;16.32;99.99
65460;DHT22;52058;49.822;6.754;2023-10-19T09:07:19;16.39;99.99
65460;DHT22;52058;49.822;6.754;2023-10-19T09:09:45;16.39;99.99
65460;DHT22;52058;49.822;6.754;2023-10-19T09:12:13;16.46;99.99
65460;DHT22;52058;49.822;6.754;2023-10-19T09:14:39;16.48;99.99
65460;DHT22;52058;49.822;6.754;2023-10-19T09:17:07;16.48;99.99
65460;DHT22;52058;49.822;6.754;2023-10-19T09:19:40;16.56;99.99
65460;DHT22;52058;49.822;6.754;2023-10-19T09:22:07;16.62;99.83
65460;DHT22;52058;49.822;6.754;2023-10-19T09:24:43;16.66;99.61
65460;DHT22;52058;49.822;6.754;2023-10-19T09:27:10;16.72;99.53
65460;DHT22;52058;49.822;6.754;2023-10-19T09:29:37;16.79;99.99
65460;DHT22;52058;49.822;6.754;2023-10-19T09:32:05;16.83;99.99
65460;DHT22;52058;49.822;6.754;2023-10-19T09:34:32;16.87;99.99
65460;DHT22;52058;49.822;6.754;2023-10-19T09:37:02;16.94;99.99
65460;DHT22;52058;49.822;6.754;2023-10-19T09:39:29;17.03;99.87
65460;DHT22;52058;49.822;6.754;2023-10-19T09:42:00;17.15;99.38
65460;DHT22;52058;49.822;6.754;2023-10-19T09:44:33;17.28;98.97
65460;DHT22;52058;49.822;6.754;2023-10-19T09:47:02;17.35;98.34
65460;DHT22;52058;49.822;6.754;2023-10-19T09:49:30;17.52;97.75
65460;DHT22;52058;49.822;6.754;2023-10-19T09:51:57;17.65;97.25
65460;DHT22;52058;49.822;6.754;2023-10-19T09:54:28;17.78;96.90
65460;DHT22;52058;49.822;6.754;2023-10-19T09:57:03;17.87;95.87
65460;DHT22;52058;49.822;6.754;2023-10-19T09:59:39;17.89;94.61
65460;DHT22;52058;49.822;6.754;2023-10-19T10:02:07;17.90;94.35
65460;DHT22;52058;49.822;6.754;2023-10-19T10:04:36;17.94;93.91
65460;DHT22;52058;49.822;6.754;2023-10-19T10:07:04;18.09;93.52
65460;DHT22;52058;49.822;6.754;2023-10-19T10:12:20;18.33;94.16
65460;DHT22;52058;49.822;6.754;2023-10-19T10:14:58;18.38;92.68
65460;DHT22;52058;49.822;6.754;2023-10-19T10:17:27;18.38;90.95
65460;DHT22;52058;49.822;6.754;2023-10-19T10:19:55;18.58;91.72
65460;DHT22;52058;49.822;6.754;2023-10-19T10:22:23;18.68;91.59
65460;DHT22;52058;49.822;6.754;2023-10-19T10:24:54;18.72;90.86
65460;DHT22;52058;49.822;6.754;2023-10-19T10:27:22;18.72;91.59
65460;DHT22;52058;49.822;6.754;2023-10-19T10:29:55;18.52;91.10
65460;DHT22;52058;49.822;6.754;2023-10-19T10:32:44;18.68;92.17
65460;DHT22;52058;49.822;6.754;2023-10-19T10:35:53;18.71;92.21
65460;DHT22;52058;49.822;6.754;2023-10-19T10:38:19;18.60;91.72
65460;DHT22;52058;49.822;6.754;2023-10-19T10:40:49;18.52;91.26
65460;DHT22;52058;49.822;6.754;2023-10-19T10:43:17;18.51;91.57
65460;DHT22;52058;49.822;6.754;2023-10-19T10:45:44;18.52;89.79
65460;DHT22;52058;49.822;6.754;2023-10-19T10:48:12;18.50;90.24
65460;DHT22;52058;49.822;6.754;2023-10-19T10:50:38;18.37;89.95
65460;DHT22;52058;49.822;6.754;2023-10-19T10:53:07;18.23;90.28
65460;DHT22;52058;49.822;6.754;2023-10-19T10:55:33;18.18;90.88
65460;DHT22;52058;49.822;6.754;2023-10-19T10:58:01;18.14;91.22
65460;DHT22;52058;49.822;6.754;2023-10-19T11:00:28;17.94;91.67
65460;DHT22;52058;49.822;6.754;2023-10-19T11:03:02;17.86;90.71
65460;DHT22;52058;49.822;6.754;2023-10-19T11:05:32;17.73;91.19
65460;DHT22;52058;49.822;6.754;2023-10-19T11:08:06;17.71;92.23
65460;DHT22;52058;49.822;6.754;2023-10-19T11:10:33;17.68;92.48
65460;DHT22;52058;49.822;6.754;2023-10-19T11:13:02;17.63;92.12
65460;DHT22;52058;49.822;6.754;2023-10-19T11:15:28;17.63;91.87
65460;DHT22;52058;49.822;6.754;2023-10-19T11:17:55;17.65;92.10
65460;DHT22;52058;49.822;6.754;2023-10-19T11:20:23;17.66;92.28
65460;DHT22;52058;49.822;6.754;2023-10-19T11:22:51;17.69;93.02
65460;DHT22;52058;49.822;6.754;2023-10-19T11:25:19;17.71;93.07
65460;DHT22;52058;49.822;6.754;2023-10-19T11:27:46;17.73;92.76
65460;DHT22;52058;49.822;6.754;2023-10-19T11:30:22;17.73;92.57
65460;DHT22;52058;49.822;6.754;2023-10-19T11:32:49;17.73;93.80
65460;DHT22;52058;49.822;6.754;2023-10-19T11:35:18;17.63;93.52
65460;DHT22;52058;49.822;6.754;2023-10-19T11:37:46;17.61;94.23
65460;DHT22;52058;49.822;6.754;2023-10-19T11:40:12;17.62;93.28
65460;DHT22;52058;49.822;6.754;2023-10-19T11:42:39;17.62;94.15
65460;DHT22;52058;49.822;6.754;2023-10-19T11:45:06;17.62;94.11
65460;DHT22;52058;49.822;6.754;2023-10-19T11:47:34;17.61;94.07
65460;DHT22;52058;49.822;6.754;2023-10-19T11:50:01;17.59;94.53
65460;DHT22;52058;49.822;6.754;2023-10-19T11:52:28;17.52;94.06
65460;DHT22;52058;49.822;6.754;2023-10-19T11:54:55;17.49;93.78
65460;DHT22;52058;49.822;6.754;2023-10-19T11:57:23;17.48;94.41
65460;DHT22;52058;49.822;6.754;2023-10-19T11:59:50;17.49;94.62
65460;DHT22;52058;49.822;6.754;2023-10-19T12:02:18;17.51;94.04
65460;DHT22;52058;49.822;6.754;2023-10-19T12:04:47;17.49;94.04
65460;DHT22;52058;49.822;6.754;2023-10-19T12:07:14;17.48;94.38
65460;DHT22;52058;49.822;6.754;2023-10-19T12:09:40;17.48;95.12
65460;DHT22;52058;49.822;6.754;2023-10-19T12:12:07;17.45;94.89
65460;DHT22;52058;49.822;6.754;2023-10-19T12:14:34;17.38;95.40
65460;DHT22;52058;49.822;6.754;2023-10-19T12:17:01;17.38;95.95
65460;DHT22;52058;49.822;6.754;2023-10-19T12:19:29;17.35;96.21
65460;DHT22;52058;49.822;6.754;2023-10-19T12:21:57;17.30;95.73
65460;DHT22;52058;49.822;6.754;2023-10-19T12:24:24;17.28;96.41
65460;DHT22;52058;49.822;6.754;2023-10-19T12:26:53;17.27;96.69
65460;DHT22;52058;49.822;6.754;2023-10-19T12:29:20;17.24;97.92
65460;DHT22;52058;49.822;6.754;2023-10-19T12:31:47;17.21;98.03
65460;DHT22;52058;49.822;6.754;2023-10-19T12:34:13;17.20;98.04
65460;DHT22;52058;49.822;6.754;2023-10-19T12:36:40;17.23;97.21
65460;DHT22;52058;49.822;6.754;2023-10-19T12:39:11;17.24;97.95
65460;DHT22;52058;49.822;6.754;2023-10-19T12:41:59;17.17;97.56
65460;DHT22;52058;49.822;6.754;2023-10-19T12:44:26;17.17;98.42
65460;DHT22;52058;49.822;6.754;2023-10-19T12:46:55;17.11;98.17
65460;DHT22;52058;49.822;6.754;2023-10-19T12:49:22;17.07;98.29
65460;DHT22;52058;49.822;6.754;2023-10-19T12:51:51;17.10;98.33
65460;DHT22;52058;49.822;6.754;2023-10-19T12:54:19;17.15;98.72
65460;DHT22;52058;49.822;6.754;2023-10-19T12:56:47;17.17;99.32
65460;DHT22;52058;49.822;6.754;2023-10-19T12:59:15;17.20;99.43
65460;DHT22;52058;49.822;6.754;2023-10-19T13:01:43;17.15;99.45
65460;DHT22;52058;49.822;6.754;2023-10-19T13:04:13;17.13;98.96
65460;DHT22;52058;49.822;6.754;2023-10-19T13:06:41;17.13;98.83
65460;DHT22;52058;49.822;6.754;2023-10-19T13:09:08;17.08;99.00
65460;DHT22;52058;49.822;6.754;2023-10-19T13:11:36;17.11;98.83
65460;DHT22;52058;49.822;6.754;2023-10-19T13:14:04;17.11;99.31
65460;DHT22;52058;49.822;6.754;2023-10-19T13:16:31;17.13;99.29
65460;DHT22;52058;49.822;6.754;2023-10-19T13:18:58;17.10;99.20
65460;DHT22;52058;49.822;6.754;2023-10-19T13:21:34;17.20;99.02
65460;DHT22;52058;49.822;6.754;2023-10-19T13:24:00;17.27;98.73
65460;DHT22;52058;49.822;6.754;2023-10-19T13:26:27;17.35;98.31
65460;DHT22;52058;49.822;6.754;2023-10-19T13:28:55;17.42;97.91
65460;DHT22;52058;49.822;6.754;2023-10-19T13:31:22;17.49;98.12
65460;DHT22;52058;49.822;6.754;2023-10-19T13:33:48;17.62;97.95
65460;DHT22;52058;49.822;6.754;2023-10-19T13:36:15;17.71;98.08
65460;DHT22;52058;49.822;6.754;2023-10-19T13:38:42;17.85;97.90
65460;DHT22;52058;49.822;6.754;2023-10-19T13:41:08;18.04;97.60
65460;DHT22;52058;49.822;6.754;2023-10-19T13:43:36;18.27;97.15
65460;DHT22;52058;49.822;6.754;2023-10-19T13:46:04;18.43;97.19
65460;DHT22;52058;49.822;6.754;2023-10-19T13:48:31;18.57;97.45
65460;DHT22;52058;49.822;6.754;2023-10-19T13:50:58;18.58;97.20
65460;DHT22;52058;49.822;6.754;2023-10-19T13:53:31;18.72;96.04
65460;DHT22;52058;49.822;6.754;2023-10-19T13:55:57;18.88;96.33
65460;DHT22;52058;49.822;6.754;2023-10-19T13:58:24;20.09;93.82
65460;DHT22;52058;49.822;6.754;2023-10-19T14:00:50;21.83;87.88
65460;DHT22;52058;49.822;6.754;2023-10-19T14:03:18;23.01;84.18
65460;DHT22;52058;49.822;6.754;2023-10-19T14:05:46;23.81;80.13
65460;DHT22;52058;49.822;6.754;2023-10-19T14:08:14;24.33;77.62
65460;DHT22;52058;49.822;6.754;2023-10-19T14:10:41;24.91;75.95
65460;DHT22;52058;49.822;6.754;2023-10-19T14:13:08;25.30;75.38
65460;DHT22;52058;49.822;6.754;2023-10-19T14:15:37;24.02;77.70
65460;DHT22;52058;49.822;6.754;2023-10-19T14:18:04;23.42;79.15
65460;DHT22;52058;49.822;6.754;2023-10-19T14:20:32;23.80;78.03
65460;DHT22;52058;49.822;6.754;2023-10-19T14:23:00;23.59;78.19
65460;DHT22;52058;49.822;6.754;2023-10-19T14:25:28;23.64;78.52
65460;DHT22;52058;49.822;6.754;2023-10-19T14:27:55;24.22;77.16
65460;DHT22;52058;49.822;6.754;2023-10-19T14:30:26;23.36;77.47
65460;DHT22;52058;49.822;6.754;2023-10-19T14:32:53;22.74;80.72
65460;DHT22;52058;49.822;6.754;2023-10-19T14:35:21;22.75;81.31
65460;DHT22;52058;49.822;6.754;2023-10-19T14:37:51;22.07;82.56
65460;DHT22;52058;49.822;6.754;2023-10-19T14:40:21;21.41;84.18
65460;DHT22;52058;49.822;6.754;2023-10-19T14:42:50;21.24;85.26
65460;DHT22;52058;49.822;6.754;2023-10-19T14:45:19;20.90;85.19
65460;DHT22;52058;49.822;6.754;2023-10-19T14:47:47;21.00;85.81
65460;DHT22;52058;49.822;6.754;2023-10-19T14:50:14;20.97;84.61
65460;DHT22;52058;49.822;6.754;2023-10-19T14:52:44;20.77;83.34
65460;DHT22;52058;49.822;6.754;2023-10-19T14:55:12;20.24;83.76
65460;DHT22;52058;49.822;6.754;2023-10-19T14:57:40;20.07;85.06
65460;DHT22;52058;49.822;6.754;2023-10-19T15:00:09;19.66;85.34
65460;DHT22;52058;49.822;6.754;2023-10-19T15:02:41;19.45;86.08
65460;DHT22;52058;49.822;6.754;2023-10-19T15:05:08;19.29;86.91
65460;DHT22;52058;49.822;6.754;2023-10-19T15:07:39;18.99;86.64
65460;DHT22;52058;49.822;6.754;2023-10-19T15:10:07;19.03;87.85
65460;DHT22;52058;49.822;6.754;2023-10-19T15:12:36;18.79;86.50
65460;DHT22;52058;49.822;6.754;2023-10-19T15:15:04;18.60;88.80
65460;DHT22;52058;49.822;6.754;2023-10-19T15:17:30;18.57;88.36
65460;DHT22;52058;49.822;6.754;2023-10-19T15:19:57;18.55;88.99
65460;DHT22;52058;49.822;6.754;2023-10-19T15:22:24;18.60;87.67
65460;DHT22;52058;49.822;6.754;2023-10-19T15:24:50;18.58;88.75
65460;DHT22;52058;49.822;6.754;2023-10-19T15:27:17;18.52;89.40
65460;DHT22;52058;49.822;6.754;2023-10-19T15:29:45;18.31;90.02
65460;DHT22;52058;49.822;6.754;2023-10-19T15:32:12;18.13;90.24
65460;DHT22;52058;49.822;6.754;2023-10-19T15:34:41;17.99;90.82
65460;DHT22;52058;49.822;6.754;2023-10-19T15:37:08;17.89;91.18
65460;DHT22;52058;49.822;6.754;2023-10-19T15:39:34;17.75;91.30
65460;DHT22;52058;49.822;6.754;2023-10-19T15:42:02;17.66;91.26